sensor_id;sensor_type;location;lat;lon;timestamp;pressure;altitude;pressure_sealevel;temperature;humidity
61506;BME280;47366;51.916;4.574;2023-04-22T00:01:48;100933.84;;;9.18;82.55
61506;BME280;47366;51.916;4.574;2023-04-22T00:04:13;100929.63;;;9.12;83.59
61506;BME280;47366;51.916;4.574;2023-04-22T00:06:39;100926.31;;;9.07;82.91
61506;BME280;47366;51.916;4.574;2023-04-22T00:09:04;100931.72;;;9.07;83.05
61506;BME280;47366;51.916;4.574;2023-04-22T00:11:30;100922.97;;;9.02;82.99
61506;BME280;47366;51.916;4.574;2023-04-22T00:13:55;100928.47;;;9.01;83.34
61506;BME280;47366;51.916;4.574;2023-04-22T00:16:20;100927.69;;;8.99;82.87
61506;BME280;47366;51.916;4.574;2023-04-22T00:18:46;100928.69;;;8.96;83.09
61506;BME280;47366;51.916;4.574;2023-04-22T00:21:11;100925.31;;;8.92;82.78
61506;BME280;47366;51.916;4.574;2023-04-22T00:23:37;100922.84;;;8.88;83.09
61506;BME280;47366;51.916;4.574;2023-04-22T00:26:02;100932.00;;;8.85;83.53
61506;BME280;47366;51.916;4.574;2023-04-22T00:28:27;100919.47;;;8.84;83.47
61506;BME280;47366;51.916;4.574;2023-04-22T00:30:53;100914.19;;;8.81;83.25
61506;BME280;47366;51.916;4.574;2023-04-22T00:33:18;100921.50;;;8.79;84.14
61506;BME280;47366;51.916;4.574;2023-04-22T00:35:46;100920.81;;;8.76;83.44
61506;BME280;47366;51.916;4.574;2023-04-22T00:38:11;100926.22;;;8.76;83.13
61506;BME280;47366;51.916;4.574;2023-04-22T00:40:37;100926.44;;;8.71;83.28
61506;BME280;47366;51.916;4.574;2023-04-22T00:43:02;100928.34;;;8.69;83.34
61506;BME280;47366;51.916;4.574;2023-04-22T00:45:29;100922.16;;;8.67;83.45
61506;BME280;47366;51.916;4.574;2023-04-22T00:47:55;100932.09;;;8.66;83.31
61506;BME280;47366;51.916;4.574;2023-04-22T00:50:20;100931.28;;;8.64;83.24
61506;BME280;47366;51.916;4.574;2023-04-22T00:52:46;100933.28;;;8.61;83.48
61506;BME280;47366;51.916;4.574;2023-04-22T00:55:11;100928.81;;;8.60;83.92
61506;BME280;47366;51.916;4.574;2023-04-22T00:57:37;100937.78;;;8.60;84.52
61506;BME280;47366;51.916;4.574;2023-04-22T01:00:04;100939.63;;;8.60;83.68
61506;BME280;47366;51.916;4.574;2023-04-22T01:02:31;100927.97;;;8.59;84.60
61506;BME280;47366;51.916;4.574;2023-04-22T01:04:56;100932.50;;;8.59;83.35
61506;BME280;47366;51.916;4.574;2023-04-22T01:07:22;100936.00;;;8.61;83.25
61506;BME280;47366;51.916;4.574;2023-04-22T01:09:48;100928.75;;;8.61;83.85
61506;BME280;47366;51.916;4.574;2023-04-22T01:12:13;100920.72;;;8.60;83.55
61506;BME280;47366;51.916;4.574;2023-04-22T01:14:39;100914.47;;;8.59;83.00
61506;BME280;47366;51.916;4.574;2023-04-22T01:17:05;100919.78;;;8.61;83.79
61506;BME280;47366;51.916;4.574;2023-04-22T01:19:31;100921.59;;;8.60;83.64
61506;BME280;47366;51.916;4.574;2023-04-22T01:21:58;100924.56;;;8.56;83.84
61506;BME280;47366;51.916;4.574;2023-04-22T01:24:23;100930.03;;;8.54;84.24
61506;BME280;47366;51.916;4.574;2023-04-22T01:26:49;100921.13;;;8.52;83.43
61506;BME280;47366;51.916;4.574;2023-04-22T01:29:14;100923.91;;;8.50;84.55
61506;BME280;47366;51.916;4.574;2023-04-22T01:31:40;100929.47;;;8.47;84.04
61506;BME280;47366;51.916;4.574;2023-04-22T01:34:06;100927.88;;;8.43;84.73
61506;BME280;47366;51.916;4.574;2023-04-22T01:36:32;100919.94;;;8.40;84.95
61506;BME280;47366;51.916;4.574;2023-04-22T01:38:58;100929.09;;;8.36;83.92
61506;BME280;47366;51.916;4.574;2023-04-22T01:41:24;100918.53;;;8.32;84.00
61506;BME280;47366;51.916;4.574;2023-04-22T01:43:51;100918.63;;;8.30;84.63
61506;BME280;47366;51.916;4.574;2023-04-22T01:46:17;100916.06;;;8.27;84.62
61506;BME280;47366;51.916;4.574;2023-04-22T01:48:43;100917.22;;;8.23;84.20
61506;BME280;47366;51.916;4.574;2023-04-22T01:51:15;100920.94;;;8.20;84.23
61506;BME280;47366;51.916;4.574;2023-04-22T01:53:40;100926.63;;;8.14;85.17
61506;BME280;47366;51.916;4.574;2023-04-22T01:56:06;100916.00;;;8.11;84.78
61506;BME280;47366;51.916;4.574;2023-04-22T01:58:32;100917.84;;;8.11;85.02
61506;BME280;47366;51.916;4.574;2023-04-22T02:00:57;100916.88;;;8.12;84.73
61506;BME280;47366;51.916;4.574;2023-04-22T02:03:23;100913.53;;;8.06;84.81
61506;BME280;47366;51.916;4.574;2023-04-22T02:05:48;100917.16;;;8.05;84.82
61506;BME280;47366;51.916;4.574;2023-04-22T02:08:13;100914.63;;;8.02;84.94
61506;BME280;47366;51.916;4.574;2023-04-22T02:10:39;100919.84;;;8.05;84.40
61506;BME280;47366;51.916;4.574;2023-04-22T02:13:04;100918.28;;;8.01;84.82
61506;BME280;47366;51.916;4.574;2023-04-22T02:15:29;100911.94;;;8.02;84.88
61506;BME280;47366;51.916;4.574;2023-04-22T02:17:55;100902.91;;;8.03;84.77
61506;BME280;47366;51.916;4.574;2023-04-22T02:20:20;100909.00;;;8.07;84.16
61506;BME280;47366;51.916;4.574;2023-04-22T02:22:46;100914.72;;;8.01;84.38
61506;BME280;47366;51.916;4.574;2023-04-22T02:25:11;100916.53;;;8.00;84.62
61506;BME280;47366;51.916;4.574;2023-04-22T02:27:38;100918.28;;;8.01;84.77
61506;BME280;47366;51.916;4.574;2023-04-22T02:30:04;100916.47;;;8.02;84.31
61506;BME280;47366;51.916;4.574;2023-04-22T02:32:29;100921.78;;;8.03;84.77
61506;BME280;47366;51.916;4.574;2023-04-22T02:34:55;100922.50;;;8.07;84.16
61506;BME280;47366;51.916;4.574;2023-04-22T02:37:20;100919.84;;;8.05;85.35
61506;BME280;47366;51.916;4.574;2023-04-22T02:39:47;100916.28;;;8.05;85.61
61506;BME280;47366;51.916;4.574;2023-04-22T02:42:13;100915.59;;;8.01;84.96
61506;BME280;47366;51.916;4.574;2023-04-22T02:44:38;100912.16;;;7.98;85.72
61506;BME280;47366;51.916;4.574;2023-04-22T02:47:05;100902.97;;;8.02;85.40
61506;BME280;47366;51.916;4.574;2023-04-22T02:49:30;100906.31;;;8.07;86.45
61506;BME280;47366;51.916;4.574;2023-04-22T02:51:56;100894.66;;;8.06;85.63
61506;BME280;47366;51.916;4.574;2023-04-22T02:54:21;100890.13;;;8.07;85.65
61506;BME280;47366;51.916;4.574;2023-04-22T02:56:47;100892.81;;;8.07;85.45
61506;BME280;47366;51.916;4.574;2023-04-22T02:59:12;100888.28;;;8.07;84.89
61506;BME280;47366;51.916;4.574;2023-04-22T03:01:37;100883.84;;;8.06;86.02
61506;BME280;47366;51.916;4.574;2023-04-22T03:04:03;100891.94;;;8.06;85.10
61506;BME280;47366;51.916;4.574;2023-04-22T03:06:28;100883.94;;;8.05;85.24
61506;BME280;47366;51.916;4.574;2023-04-22T03:08:53;100881.38;;;8.02;84.96
61506;BME280;47366;51.916;4.574;2023-04-22T03:11:19;100878.69;;;8.02;85.44
61506;BME280;47366;51.916;4.574;2023-04-22T03:13:44;100868.13;;;7.97;85.17
61506;BME280;47366;51.916;4.574;2023-04-22T03:16:10;100869.72;;;8.01;86.37
61506;BME280;47366;51.916;4.574;2023-04-22T03:18:35;100859.88;;;8.00;86.46
61506;BME280;47366;51.916;4.574;2023-04-22T03:21:01;100866.06;;;8.02;86.87
61506;BME280;47366;51.916;4.574;2023-04-22T03:23:26;100868.59;;;8.05;86.43
61506;BME280;47366;51.916;4.574;2023-04-22T03:25:51;100857.03;;;8.03;86.63
61506;BME280;47366;51.916;4.574;2023-04-22T03:28:17;100863.31;;;8.04;86.93
61506;BME280;47366;51.916;4.574;2023-04-22T03:30:42;100848.84;;;8.05;85.44
61506;BME280;47366;51.916;4.574;2023-04-22T03:33:08;100847.94;;;8.06;85.89
61506;BME280;47366;51.916;4.574;2023-04-22T03:35:33;100855.13;;;8.05;86.49
61506;BME280;47366;51.916;4.574;2023-04-22T03:37:58;100852.53;;;8.04;87.04
61506;BME280;47366;51.916;4.574;2023-04-22T03:40:24;100848.84;;;8.05;86.19
61506;BME280;47366;51.916;4.574;2023-04-22T03:42:49;100844.59;;;8.01;86.94
61506;BME280;47366;51.916;4.574;2023-04-22T03:45:15;100847.34;;;7.99;85.67
61506;BME280;47366;51.916;4.574;2023-04-22T03:47:40;100846.25;;;8.03;86.41
61506;BME280;47366;51.916;4.574;2023-04-22T03:50:05;100847.13;;;8.04;85.52
61506;BME280;47366;51.916;4.574;2023-04-22T03:52:31;100844.50;;;8.02;85.50
61506;BME280;47366;51.916;4.574;2023-04-22T03:54:56;100832.78;;;8.03;85.95
61506;BME280;47366;51.916;4.574;2023-04-22T03:57:21;100833.47;;;8.07;85.49
61506;BME280;47366;51.916;4.574;2023-04-22T03:59:47;100835.31;;;8.06;85.20
61506;BME280;47366;51.916;4.574;2023-04-22T04:02:12;100836.09;;;8.08;85.35
61506;BME280;47366;51.916;4.574;2023-04-22T04:04:37;100833.41;;;8.08;85.70
61506;BME280;47366;51.916;4.574;2023-04-22T04:07:03;100831.63;;;8.07;86.57
61506;BME280;47366;51.916;4.574;2023-04-22T04:09:28;100825.22;;;8.10;86.72
61506;BME280;47366;51.916;4.574;2023-04-22T04:11:54;100831.56;;;8.09;86.17
61506;BME280;47366;51.916;4.574;2023-04-22T04:14:19;100824.56;;;8.05;85.90
61506;BME280;47366;51.916;4.574;2023-04-22T04:16:44;100827.13;;;8.08;85.83
61506;BME280;47366;51.916;4.574;2023-04-22T04:19:10;100819.91;;;8.08;85.82
61506;BME280;47366;51.916;4.574;2023-04-22T04:21:35;100813.88;;;8.03;86.85
61506;BME280;47366;51.916;4.574;2023-04-22T04:24:02;100811.19;;;8.03;85.18
61506;BME280;47366;51.916;4.574;2023-04-22T04:26:28;100803.97;;;8.04;86.95
61506;BME280;47366;51.916;4.574;2023-04-22T04:28:53;100800.31;;;8.05;87.14
61506;BME280;47366;51.916;4.574;2023-04-22T04:31:20;100803.78;;;8.07;86.29
61506;BME280;47366;51.916;4.574;2023-04-22T04:33:45;100808.41;;;8.05;87.33
61506;BME280;47366;51.916;4.574;2023-04-22T04:36:11;100808.31;;;8.06;86.51
61506;BME280;47366;51.916;4.574;2023-04-22T04:38:37;100810.97;;;8.08;86.72
61506;BME280;47366;51.916;4.574;2023-04-22T04:41:03;100802.94;;;8.06;86.26
61506;BME280;47366;51.916;4.574;2023-04-22T04:43:28;100809.91;;;8.11;86.43
61506;BME280;47366;51.916;4.574;2023-04-22T04:45:54;100802.69;;;8.11;86.22
61506;BME280;47366;51.916;4.574;2023-04-22T04:48:19;100800.84;;;8.12;86.38
61506;BME280;47366;51.916;4.574;2023-04-22T04:50:49;100800.06;;;8.09;87.04
61506;BME280;47366;51.916;4.574;2023-04-22T04:53:18;100805.63;;;8.06;86.61
61506;BME280;47366;51.916;4.574;2023-04-22T04:55:44;100808.16;;;8.09;86.63
61506;BME280;47366;51.916;4.574;2023-04-22T04:58:09;100799.19;;;8.09;86.46
61506;BME280;47366;51.916;4.574;2023-04-22T05:00:34;100782.22;;;8.07;86.65
61506;BME280;47366;51.916;4.574;2023-04-22T05:03:00;100790.06;;;8.12;86.39
61506;BME280;47366;51.916;4.574;2023-04-22T05:05:25;100787.44;;;8.10;86.22
61506;BME280;47366;51.916;4.574;2023-04-22T05:07:50;100788.34;;;8.11;86.17
61506;BME280;47366;51.916;4.574;2023-04-22T05:10:17;100784.75;;;8.10;86.49
61506;BME280;47366;51.916;4.574;2023-04-22T05:12:43;100796.25;;;8.14;86.42
61506;BME280;47366;51.916;4.574;2023-04-22T05:15:10;100795.41;;;8.13;86.38
61506;BME280;47366;51.916;4.574;2023-04-22T05:17:35;100791.81;;;8.13;85.87
61506;BME280;47366;51.916;4.574;2023-04-22T05:20:02;100799.81;;;8.14;86.13
61506;BME280;47366;51.916;4.574;2023-04-22T05:22:27;100810.53;;;8.16;86.40
61506;BME280;47366;51.916;4.574;2023-04-22T05:24:52;100809.75;;;8.14;86.67
61506;BME280;47366;51.916;4.574;2023-04-22T05:27:18;100816.81;;;8.16;86.86
61506;BME280;47366;51.916;4.574;2023-04-22T05:29:43;100821.09;;;8.20;85.82
61506;BME280;47366;51.916;4.574;2023-04-22T05:32:09;100813.81;;;8.22;86.61
61506;BME280;47366;51.916;4.574;2023-04-22T05:34:34;100814.66;;;8.23;86.73
61506;BME280;47366;51.916;4.574;2023-04-22T05:37:01;100810.31;;;8.20;85.94
61506;BME280;47366;51.916;4.574;2023-04-22T05:39:27;100812.84;;;8.23;86.56
61506;BME280;47366;51.916;4.574;2023-04-22T05:41:52;100819.03;;;8.25;86.33
61506;BME280;47366;51.916;4.574;2023-04-22T05:44:18;100826.88;;;8.30;86.63
61506;BME280;47366;51.916;4.574;2023-04-22T05:46:44;100814.19;;;8.32;85.90
61506;BME280;47366;51.916;4.574;2023-04-22T05:49:09;100815.06;;;8.33;87.19
61506;BME280;47366;51.916;4.574;2023-04-22T05:51:35;100798.00;;;8.32;86.71
61506;BME280;47366;51.916;4.574;2023-04-22T05:54:00;100808.41;;;8.40;85.91
61506;BME280;47366;51.916;4.574;2023-04-22T05:56:25;100799.34;;;8.41;86.06
61506;BME280;47366;51.916;4.574;2023-04-22T05:58:51;100796.56;;;8.42;86.54
61506;BME280;47366;51.916;4.574;2023-04-22T06:01:16;100794.75;;;8.43;85.81
61506;BME280;47366;51.916;4.574;2023-04-22T06:03:41;100782.91;;;8.45;86.01
61506;BME280;47366;51.916;4.574;2023-04-22T06:06:07;100791.72;;;8.49;85.75
61506;BME280;47366;51.916;4.574;2023-04-22T06:08:33;100778.22;;;8.49;85.81
61506;BME280;47366;51.916;4.574;2023-04-22T06:10:58;100781.63;;;8.53;85.89
61506;BME280;47366;51.916;4.574;2023-04-22T06:13:23;100788.69;;;8.55;85.94
61506;BME280;47366;51.916;4.574;2023-04-22T06:15:49;100790.19;;;8.61;86.22
61506;BME280;47366;51.916;4.574;2023-04-22T06:18:15;100783.13;;;8.58;86.09
61506;BME280;47366;51.916;4.574;2023-04-22T06:20:40;100790.81;;;8.66;85.84
61506;BME280;47366;51.916;4.574;2023-04-22T06:23:05;100784.56;;;8.65;86.11
61506;BME280;47366;51.916;4.574;2023-04-22T06:25:31;100795.84;;;8.72;86.20
61506;BME280;47366;51.916;4.574;2023-04-22T06:27:58;100774.19;;;8.74;85.99
61506;BME280;47366;51.916;4.574;2023-04-22T06:30:23;100770.38;;;8.78;85.81
61506;BME280;47366;51.916;4.574;2023-04-22T06:32:50;100780.81;;;8.84;85.29
61506;BME280;47366;51.916;4.574;2023-04-22T06:35:16;100774.03;;;8.92;85.20
61506;BME280;47366;51.916;4.574;2023-04-22T06:37:41;100770.03;;;9.00;85.45
61506;BME280;47366;51.916;4.574;2023-04-22T06:40:07;100772.22;;;9.09;84.21
61506;BME280;47366;51.916;4.574;2023-04-22T06:42:33;100769.94;;;9.17;84.19
61506;BME280;47366;51.916;4.574;2023-04-22T06:44:58;100757.22;;;9.19;84.26
61506;BME280;47366;51.916;4.574;2023-04-22T06:47:24;100762.00;;;9.30;83.46
61506;BME280;47366;51.916;4.574;2023-04-22T06:49:49;100763.41;;;9.37;84.59
61506;BME280;47366;51.916;4.574;2023-04-22T06:52:14;100764.19;;;9.39;83.54
61506;BME280;47366;51.916;4.574;2023-04-22T06:54:43;100752.06;;;9.46;83.28
61506;BME280;47366;51.916;4.574;2023-04-22T06:57:08;100751.00;;;9.49;84.33
61506;BME280;47366;51.916;4.574;2023-04-22T06:59:33;100748.97;;;9.52;83.23
61506;BME280;47366;51.916;4.574;2023-04-22T07:01:59;100759.19;;;9.63;83.24
61506;BME280;47366;51.916;4.574;2023-04-22T07:04:24;100756.09;;;9.69;83.53
61506;BME280;47366;51.916;4.574;2023-04-22T07:06:51;100750.50;;;9.72;83.57
61506;BME280;47366;51.916;4.574;2023-04-22T07:09:17;100757.38;;;9.78;84.32
61506;BME280;47366;51.916;4.574;2023-04-22T07:11:43;100761.47;;;9.85;83.44
61506;BME280;47366;51.916;4.574;2023-04-22T07:14:08;100757.91;;;9.85;84.42
61506;BME280;47366;51.916;4.574;2023-04-22T07:16:33;100774.34;;;9.96;83.41
61506;BME280;47366;51.916;4.574;2023-04-22T07:18:59;100770.13;;;10.06;83.08
61506;BME280;47366;51.916;4.574;2023-04-22T07:21:24;100758.25;;;10.09;84.01
61506;BME280;47366;51.916;4.574;2023-04-22T07:23:50;100760.94;;;10.09;82.97
61506;BME280;47366;51.916;4.574;2023-04-22T07:26:16;100768.69;;;10.15;83.03
61506;BME280;47366;51.916;4.574;2023-04-22T07:28:41;100779.94;;;10.23;82.59
61506;BME280;47366;51.916;4.574;2023-04-22T07:31:08;100778.63;;;10.30;82.72
61506;BME280;47366;51.916;4.574;2023-04-22T07:33:34;100772.81;;;10.36;82.10
61506;BME280;47366;51.916;4.574;2023-04-22T07:36:02;100774.66;;;10.50;82.97
61506;BME280;47366;51.916;4.574;2023-04-22T07:38:28;100770.50;;;10.73;82.50
61506;BME280;47366;51.916;4.574;2023-04-22T07:40:53;100764.97;;;10.89;81.85
61506;BME280;47366;51.916;4.574;2023-04-22T07:43:19;100773.66;;;11.09;81.77
61506;BME280;47366;51.916;4.574;2023-04-22T07:45:44;100767.19;;;11.38;79.92
61506;BME280;47366;51.916;4.574;2023-04-22T07:48:09;100763.19;;;11.71;79.61
61506;BME280;47366;51.916;4.574;2023-04-22T07:50:35;100753.53;;;12.07;78.79
61506;BME280;47366;51.916;4.574;2023-04-22T07:53:00;100739.31;;;12.16;77.31
61506;BME280;47366;51.916;4.574;2023-04-22T07:55:26;100742.03;;;12.29;77.26
61506;BME280;47366;51.916;4.574;2023-04-22T07:57:51;100729.97;;;12.59;76.26
61506;BME280;47366;51.916;4.574;2023-04-22T08:00:17;100727.53;;;12.80;75.56
61506;BME280;47366;51.916;4.574;2023-04-22T08:02:42;100713.53;;;13.10;74.84
61506;BME280;47366;51.916;4.574;2023-04-22T08:05:08;100716.38;;;13.45;73.74
61506;BME280;47366;51.916;4.574;2023-04-22T08:07:33;100717.81;;;13.62;72.61
61506;BME280;47366;51.916;4.574;2023-04-22T08:09:59;100718.50;;;13.53;72.21
61506;BME280;47366;51.916;4.574;2023-04-22T08:12:24;100722.66;;;13.46;72.72
61506;BME280;47366;51.916;4.574;2023-04-22T08:14:50;100713.56;;;13.34;72.80
61506;BME280;47366;51.916;4.574;2023-04-22T08:17:15;100725.31;;;13.34;72.34
61506;BME280;47366;51.916;4.574;2023-04-22T08:19:41;100736.97;;;13.36;72.41
61506;BME280;47366;51.916;4.574;2023-04-22T08:22:06;100731.59;;;13.48;73.03
61506;BME280;47366;51.916;4.574;2023-04-22T08:24:31;100735.75;;;13.65;72.49
61506;BME280;47366;51.916;4.574;2023-04-22T08:26:57;100725.09;;;13.62;72.09
61506;BME280;47366;51.916;4.574;2023-04-22T08:29:22;100724.44;;;13.58;71.93
61506;BME280;47366;51.916;4.574;2023-04-22T08:31:48;100735.16;;;13.72;72.31
61506;BME280;47366;51.916;4.574;2023-04-22T08:34:13;100729.28;;;13.90;69.81
61506;BME280;47366;51.916;4.574;2023-04-22T08:36:38;100724.03;;;14.22;70.69
61506;BME280;47366;51.916;4.574;2023-04-22T08:39:04;100722.59;;;14.52;69.24
61506;BME280;47366;51.916;4.574;2023-04-22T08:41:33;100718.50;;;14.46;69.40
61506;BME280;47366;51.916;4.574;2023-04-22T08:44:00;100719.09;;;14.38;69.28
61506;BME280;47366;51.916;4.574;2023-04-22T08:46:26;100705.75;;;14.35;68.83
61506;BME280;47366;51.916;4.574;2023-04-22T08:48:53;100707.97;;;14.53;67.00
61506;BME280;47366;51.916;4.574;2023-04-22T08:51:18;100704.28;;;14.65;68.14
61506;BME280;47366;51.916;4.574;2023-04-22T08:53:44;100696.38;;;14.62;66.71
61506;BME280;47366;51.916;4.574;2023-04-22T08:56:12;100690.28;;;14.58;67.99
61506;BME280;47366;51.916;4.574;2023-04-22T08:58:41;100680.31;;;14.35;67.85
61506;BME280;47366;51.916;4.574;2023-04-22T09:01:07;100674.25;;;14.31;66.00
61506;BME280;47366;51.916;4.574;2023-04-22T09:03:34;100672.56;;;14.30;66.61
61506;BME280;47366;51.916;4.574;2023-04-22T09:06:03;100648.50;;;14.24;68.08
61506;BME280;47366;51.916;4.574;2023-04-22T09:08:29;100652.47;;;14.20;68.79
61506;BME280;47366;51.916;4.574;2023-04-22T09:10:56;100636.13;;;14.09;68.93
61506;BME280;47366;51.916;4.574;2023-04-22T09:13:24;100644.13;;;13.99;70.06
61506;BME280;47366;51.916;4.574;2023-04-22T09:15:50;100633.59;;;13.83;70.69
61506;BME280;47366;51.916;4.574;2023-04-22T09:18:18;100636.03;;;13.75;71.69
61506;BME280;47366;51.916;4.574;2023-04-22T09:20:46;100644.47;;;13.72;71.85
61506;BME280;47366;51.916;4.574;2023-04-22T09:23:13;100642.59;;;13.72;71.81
61506;BME280;47366;51.916;4.574;2023-04-22T09:25:39;100658.31;;;13.69;72.05
61506;BME280;47366;51.916;4.574;2023-04-22T09:28:05;100659.28;;;13.68;72.19
61506;BME280;47366;51.916;4.574;2023-04-22T09:30:35;100654.84;;;13.67;72.02
61506;BME280;47366;51.916;4.574;2023-04-22T09:33:03;100677.03;;;13.73;70.65
61506;BME280;47366;51.916;4.574;2023-04-22T09:35:36;100671.63;;;13.96;70.85
61506;BME280;47366;51.916;4.574;2023-04-22T09:38:03;100673.25;;;14.10;70.36
61506;BME280;47366;51.916;4.574;2023-04-22T09:40:30;100674.75;;;14.14;68.87
61506;BME280;47366;51.916;4.574;2023-04-22T09:42:59;100684.16;;;14.10;68.58
61506;BME280;47366;51.916;4.574;2023-04-22T09:45:34;100691.84;;;14.16;69.33
61506;BME280;47366;51.916;4.574;2023-04-22T09:48:18;100691.63;;;14.30;68.15
61506;BME280;47366;51.916;4.574;2023-04-22T09:50:46;100695.81;;;14.45;68.31
61506;BME280;47366;51.916;4.574;2023-04-22T09:53:14;100697.84;;;14.55;67.77
61506;BME280;47366;51.916;4.574;2023-04-22T09:55:43;100708.75;;;14.66;68.09
61506;BME280;47366;51.916;4.574;2023-04-22T09:58:11;100709.22;;;14.82;66.42
61506;BME280;47366;51.916;4.574;2023-04-22T10:00:43;100708.72;;;15.00;66.92
61506;BME280;47366;51.916;4.574;2023-04-22T10:03:11;100686.63;;;15.03;67.50
61506;BME280;47366;51.916;4.574;2023-04-22T10:05:36;100699.53;;;15.01;67.48
61506;BME280;47366;51.916;4.574;2023-04-22T10:08:06;100699.53;;;14.90;67.72
61506;BME280;47366;51.916;4.574;2023-04-22T10:10:34;100692.75;;;14.84;68.20
61506;BME280;47366;51.916;4.574;2023-04-22T10:13:02;100691.63;;;14.75;67.36
61506;BME280;47366;51.916;4.574;2023-04-22T10:15:40;100692.53;;;14.64;67.98
61506;BME280;47366;51.916;4.574;2023-04-22T10:18:12;100686.31;;;14.62;68.34
61506;BME280;47366;51.916;4.574;2023-04-22T10:20:41;100694.81;;;14.47;68.20
61506;BME280;47366;51.916;4.574;2023-04-22T10:23:17;100702.75;;;14.27;67.65
61506;BME280;47366;51.916;4.574;2023-04-22T10:25:47;100704.22;;;14.20;69.03
61506;BME280;47366;51.916;4.574;2023-04-22T10:28:15;100718.19;;;14.15;69.01
61506;BME280;47366;51.916;4.574;2023-04-22T10:30:41;100715.72;;;14.12;68.89
61506;BME280;47366;51.916;4.574;2023-04-22T10:36:12;100703.81;;;14.02;69.23
61506;BME280;47366;51.916;4.574;2023-04-22T10:41:14;100705.16;;;13.96;69.47
61506;BME280;47366;51.916;4.574;2023-04-22T10:43:41;100711.84;;;13.92;69.58
61506;BME280;47366;51.916;4.574;2023-04-22T10:46:06;100705.66;;;13.90;69.57
61506;BME280;47366;51.916;4.574;2023-04-22T10:48:48;100692.66;;;13.83;69.66
61506;BME280;47366;51.916;4.574;2023-04-22T10:53:58;100700.06;;;13.80;70.04
61506;BME280;47366;51.916;4.574;2023-04-22T10:56:26;100687.00;;;13.73;71.10
61506;BME280;47366;51.916;4.574;2023-04-22T10:58:51;100672.78;;;13.69;71.17
61506;BME280;47366;51.916;4.574;2023-04-22T11:01:16;100683.03;;;13.66;71.21
61506;BME280;47366;51.916;4.574;2023-04-22T11:03:42;100697.75;;;13.63;71.30
61506;BME280;47366;51.916;4.574;2023-04-22T11:06:18;100709.97;;;13.57;71.64
61506;BME280;47366;51.916;4.574;2023-04-22T11:08:47;100727.75;;;13.50;72.05
61506;BME280;47366;51.916;4.574;2023-04-22T11:11:16;100724.41;;;13.47;72.95
61506;BME280;47366;51.916;4.574;2023-04-22T11:13:42;100719.53;;;13.39;73.37
61506;BME280;47366;51.916;4.574;2023-04-22T11:16:08;100729.38;;;13.29;73.56
61506;BME280;47366;51.916;4.574;2023-04-22T11:18:34;100741.25;;;13.28;73.89
61506;BME280;47366;51.916;4.574;2023-04-22T11:21:06;100755.28;;;13.22;74.13
61506;BME280;47366;51.916;4.574;2023-04-22T11:23:33;100736.06;;;13.12;74.61
61506;BME280;47366;51.916;4.574;2023-04-22T11:26:03;100746.06;;;13.11;75.17
61506;BME280;47366;51.916;4.574;2023-04-22T11:28:29;100746.59;;;13.04;75.70
61506;BME280;47366;51.916;4.574;2023-04-22T11:31:06;100748.59;;;13.02;75.95
61506;BME280;47366;51.916;4.574;2023-04-22T11:33:35;100754.47;;;12.95;76.29
61506;BME280;47366;51.916;4.574;2023-04-22T11:36:02;100718.38;;;12.93;76.29
61506;BME280;47366;51.916;4.574;2023-04-22T11:38:28;100735.25;;;12.86;76.99
61506;BME280;47366;51.916;4.574;2023-04-22T11:40:55;100735.34;;;12.84;77.38
61506;BME280;47366;51.916;4.574;2023-04-22T11:43:22;100741.00;;;12.81;77.55
61506;BME280;47366;51.916;4.574;2023-04-22T11:45:47;100743.75;;;12.81;77.71
61506;BME280;47366;51.916;4.574;2023-04-22T11:48:13;100728.53;;;12.79;78.37
61506;BME280;47366;51.916;4.574;2023-04-22T11:50:40;100728.94;;;12.72;78.60
61506;BME280;47366;51.916;4.574;2023-04-22T11:55:41;100753.66;;;12.69;78.12
61506;BME280;47366;51.916;4.574;2023-04-22T11:58:10;100754.63;;;12.68;78.99
61506;BME280;47366;51.916;4.574;2023-04-22T12:00:38;100721.13;;;12.68;78.59
61506;BME280;47366;51.916;4.574;2023-04-22T12:08:24;100687.66;;;12.67;79.56
61506;BME280;47366;51.916;4.574;2023-04-22T12:10:53;100682.22;;;12.67;79.76
61506;BME280;47366;51.916;4.574;2023-04-22T12:13:24;100687.13;;;12.62;79.50
61506;BME280;47366;51.916;4.574;2023-04-22T12:16:02;100705.28;;;12.62;79.63
61506;BME280;47366;51.916;4.574;2023-04-22T12:18:37;100721.69;;;12.60;79.78
61506;BME280;47366;51.916;4.574;2023-04-22T12:23:28;100738.56;;;12.52;79.86
61506;BME280;47366;51.916;4.574;2023-04-22T12:25:53;100725.06;;;12.51;80.01
61506;BME280;47366;51.916;4.574;2023-04-22T12:28:20;100719.88;;;12.48;80.73
61506;BME280;47366;51.916;4.574;2023-04-22T12:30:45;100698.34;;;12.45;80.13
61506;BME280;47366;51.916;4.574;2023-04-22T12:33:11;100705.31;;;12.49;80.67
61506;BME280;47366;51.916;4.574;2023-04-22T12:35:36;100715.72;;;12.55;80.77
61506;BME280;47366;51.916;4.574;2023-04-22T12:38:01;100703.75;;;12.58;80.56
61506;BME280;47366;51.916;4.574;2023-04-22T12:40:27;100708.78;;;12.64;81.62
61506;BME280;47366;51.916;4.574;2023-04-22T12:42:52;100695.81;;;12.67;80.43
61506;BME280;47366;51.916;4.574;2023-04-22T12:45:18;100701.91;;;12.71;81.71
61506;BME280;47366;51.916;4.574;2023-04-22T12:47:43;100709.63;;;12.64;81.97
61506;BME280;47366;51.916;4.574;2023-04-22T12:50:10;100710.81;;;12.60;81.18
61506;BME280;47366;51.916;4.574;2023-04-22T12:52:35;100718.97;;;12.60;81.05
61506;BME280;47366;51.916;4.574;2023-04-22T12:55:00;100719.22;;;12.57;80.79
61506;BME280;47366;51.916;4.574;2023-04-22T12:57:26;100718.69;;;12.52;81.18
61506;BME280;47366;51.916;4.574;2023-04-22T12:59:51;100717.81;;;12.51;81.42
61506;BME280;47366;51.916;4.574;2023-04-22T13:02:16;100715.97;;;12.52;80.66
61506;BME280;47366;51.916;4.574;2023-04-22T13:04:42;100721.25;;;12.53;80.86
61506;BME280;47366;51.916;4.574;2023-04-22T13:07:07;100717.69;;;12.53;81.14
61506;BME280;47366;51.916;4.574;2023-04-22T13:09:33;100729.53;;;12.52;81.33